FCPP

Pointe Noire Airport

Pointe Noire, Congo
METAR FCPP 222100Z 01003KT 6000 TS SCT010 SCT023 FEW030CB 25/24 Q1010 NOSIG
Observed Flight Rules
Apr-22 @ 21:00 UTC (40 minutes ago) Marginal Visual Flight Rules
Wind Visibility Clouds Conditions
10° at 3 knots 6,003 meters
  • Scattered at 1,000' AGL
  • Scattered at 2,300' AGL
  • Few at 3,000' AGL
  • Thunderstorm
Temperatures Readings
Current 25°C / 77°F
Dewpoint 24°C / 75°F
Humidity 94%
Altimeter 29.82" Hg
Pressure 1010 hPa
Elevation 17
METAR FCPP 222100Z 01003KT 6000 TS SCT010 SCT023 FEW030CB 25/24 Q1010 NOSIG
Observed Flight Rules
Apr-22 @ 21:00 UTC
(40 minutes ago)
MVFR
Wind Visibility
10° at 3 knots 6,003 meters
Clouds
  • Scattered at 1,000' AGL
  • Scattered at 2,300' AGL
  • Few at 3,000' AGL
Conditions
  • Thunderstorm
Temperature Dewpoint
25°C / 77°F 24°C / 75°F
Humidity Altimeter Pressure
94% 29.82" Hg 1010 hPa